Time;durP1;ratioP1;P1;durP2;ratioP2;P2;SDS_P1;SDS_P2;PMS_P1;PMS_P2;Temp;Humidity;BMP_temperature;BMP_pressure;BME280_temperature;BME280_humidity;BME280_pressure;Samples;Min_cycle;Max_cycle;Signal;HPM_P1;HPM_P2
2022/01/15 00:01:29;;;;;;;24.63;6.35;;;5.20;99.90;;;;;;5073168;28;20382;-55
2022/01/15 00:03:54;;;;;;;24.38;6.70;;;5.10;99.90;;;;;;5071084;28;20731;-50
2022/01/15 00:06:20;;;;;;;28.15;7.47;;;5.10;99.90;;;;;;5071392;28;20773;-48
2022/01/15 00:08:46;;;;;;;28.20;6.40;;;5.10;99.90;;;;;;5088686;28;20506;-49
2022/01/15 00:11:12;;;;;;;27.40;7.80;;;5.10;99.90;;;;;;5069968;28;20410;-48
2022/01/15 00:13:39;;;;;;;23.53;6.30;;;5.10;99.90;;;;;;5071780;28;20682;-54
2022/01/15 00:16:09;;;;;;;20.52;5.50;;;5.00;99.90;;;;;;5072487;28;20690;-50
2022/01/15 00:18:48;;;;;;;27.75;6.75;;;5.10;99.90;;;;;;5090439;28;20402;-53
2022/01/15 00:21:14;;;;;;;23.30;5.78;;;5.10;99.90;;;;;;5073594;28;20390;-51
2022/01/15 00:23:41;;;;;;;23.70;6.28;;;5.20;99.90;;;;;;5073011;28;20489;-55
2022/01/15 00:26:07;;;;;;;21.45;6.00;;;5.20;99.90;;;;;;5073377;28;20382;-52
2022/01/15 00:28:34;;;;;;;26.45;6.70;;;5.20;99.90;;;;;;5088525;28;20711;-55
2022/01/15 00:31:00;;;;;;;26.17;6.57;;;5.10;99.90;;;;;;5088607;28;20832;-54
2022/01/15 00:33:26;;;;;;;24.87;6.70;;;5.10;99.90;;;;;;5069853;28;20689;-53
2022/01/15 00:35:52;;;;;;;25.15;5.65;;;5.10;99.90;;;;;;5070877;28;20638;-51
2022/01/15 00:38:18;;;;;;;20.23;5.72;;;5.10;99.90;;;;;;5071820;28;20505;-55
2022/01/15 00:40:47;;;;;;;21.35;6.10;;;5.10;99.90;;;;;;5092057;28;20386;-53
2022/01/15 00:43:13;;;;;;;21.33;5.90;;;5.10;99.90;;;;;;5064437;28;20419;-50
2022/01/15 00:45:40;;;;;;;23.37;5.83;;;5.10;99.90;;;;;;5074690;28;20423;-48
2022/01/15 00:48:06;;;;;;;24.50;6.07;;;5.10;99.90;;;;;;5057377;28;20412;-48
2022/01/15 00:50:32;;;;;;;23.57;6.13;;;5.10;99.90;;;;;;5075503;28;20524;-51
2022/01/15 00:52:59;;;;;;;23.80;6.13;;;5.10;99.90;;;;;;5058056;28;20398;-49
2022/01/15 00:55:25;;;;;;;22.38;5.70;;;5.10;99.90;;;;;;5057883;28;20953;-50
2022/01/15 00:57:50;;;;;;;22.83;6.13;;;5.10;99.90;;;;;;5075296;28;20402;-53
2022/01/15 01:00:20;;;;;;;27.27;5.90;;;5.10;99.90;;;;;;5057212;28;20406;-51
2022/01/15 01:02:47;;;;;;;24.85;6.13;;;5.10;99.90;;;;;;5064630;28;20426;-51
2022/01/15 01:05:14;;;;;;;20.20;5.93;;;5.10;99.90;;;;;;5076039;28;20466;-54
2022/01/15 01:07:42;;;;;;;23.30;6.10;;;5.10;99.90;;;;;;5077272;28;20420;-54
2022/01/15 01:10:36;;;;;;;20.70;5.53;;;5.10;99.90;;;;;;5077038;28;20382;-51
2022/01/15 01:23:45;;;;;;;23.08;6.15;;;5.10;99.90;;;;;;5073436;28;20374;-53
2022/01/15 01:26:25;;;;;;;26.95;6.35;;;5.10;99.90;;;;;;5077620;28;20404;-53
2022/01/15 01:29:02;;;;;;;21.33;5.35;;;5.20;99.90;;;;;;5095058;28;20740;-49
2022/01/15 01:31:38;;;;;;;17.40;5.17;;;5.20;99.90;;;;;;5079392;28;20451;-54
2022/01/15 01:34:10;;;;;;;24.03;5.93;;;5.20;99.90;;;;;;5097606;28;20384;-52
2022/01/15 01:36:48;;;;;;;21.05;5.43;;;5.20;99.90;;;;;;5079518;28;20409;-52
2022/01/15 01:39:32;;;;;;;23.55;5.75;;;5.20;99.90;;;;;;5098269;28;20421;-51
2022/01/15 01:45:00;;;;;;;32.65;6.78;;;5.20;99.90;;;;;;5097143;28;20377;-50
2022/01/15 01:47:39;;;;;;;17.95;5.53;;;5.20;99.90;;;;;;5079708;28;20410;-53
2022/01/15 01:50:11;;;;;;;21.13;5.40;;;5.20;99.90;;;;;;5079952;28;20370;-51
2022/01/15 01:52:37;;;;;;;19.58;4.85;;;5.20;99.90;;;;;;5079966;28;20381;-51
2022/01/15 01:55:05;;;;;;;21.30;5.30;;;5.30;99.90;;;;;;5097817;28;20386;-53
2022/01/15 01:57:32;;;;;;;25.35;6.43;;;5.30;99.90;;;;;;5079829;28;20489;-52
2022/01/15 01:59:57;;;;;;;23.48;6.10;;;5.40;99.90;;;;;;5079433;28;20408;-54
2022/01/15 02:02:23;;;;;;;27.03;5.80;;;5.30;99.90;;;;;;5075807;28;20410;-51
2022/01/15 02:04:48;;;;;;;30.63;6.93;;;5.20;99.90;;;;;;5094329;28;20790;-49
2022/01/15 02:07:14;;;;;;;23.38;5.38;;;5.30;99.90;;;;;;5077262;28;20412;-52
2022/01/15 02:09:40;;;;;;;18.43;5.23;;;5.30;99.90;;;;;;5078533;28;20612;-49
2022/01/15 02:12:06;;;;;;;29.63;6.20;;;5.20;99.90;;;;;;5075469;28;20627;-50
2022/01/15 02:14:32;;;;;;;26.52;5.50;;;5.30;99.90;;;;;;5075435;28;20835;-49
2022/01/15 02:16:58;;;;;;;15.18;3.97;;;5.30;99.90;;;;;;5074756;28;20432;-53
2022/01/15 02:19:44;;;;;;;25.08;5.68;;;5.30;99.90;;;;;;5091526;28;20393;-51
2022/01/15 02:24:54;;;;;;;15.95;4.68;;;5.40;99.90;;;;;;5092901;28;20424;-49
2022/01/15 02:27:20;;;;;;;25.25;6.28;;;5.40;99.90;;;;;;5075773;28;20413;-52
2022/01/15 02:29:45;;;;;;;16.30;4.50;;;5.30;99.90;;;;;;5094721;28;20814;-51
2022/01/15 02:32:11;;;;;;;16.98;4.75;;;5.30;99.90;;;;;;5060048;28;20394;-53
2022/01/15 02:34:36;;;;;;;24.63;6.07;;;5.30;99.90;;;;;;5076705;28;20378;-51
2022/01/15 02:37:02;;;;;;;21.20;4.93;;;5.30;99.90;;;;;;5076807;28;20404;-50
2022/01/15 02:39:28;;;;;;;21.17;5.30;;;5.30;99.90;;;;;;5094058;28;20692;-52
2022/01/15 02:41:53;;;;;;;14.63;4.00;;;5.30;99.90;;;;;;5076078;28;20864;-55
2022/01/15 02:44:20;;;;;;;19.67;4.80;;;5.30;99.90;;;;;;5076512;28;20400;-52
2022/01/15 02:49:16;;;;;;;22.87;5.47;;;5.40;99.90;;;;;;5095512;28;20451;-54
2022/01/15 02:51:41;;;;;;;19.15;4.85;;;5.30;99.90;;;;;;5078440;28;20936;-54
2022/01/15 02:54:08;;;;;;;25.60;5.80;;;5.30;99.90;;;;;;5079100;28;20472;-55
2022/01/15 02:56:42;;;;;;;16.35;4.35;;;5.40;99.90;;;;;;5078622;28;20386;-55
2022/01/15 02:59:18;;;;;;;23.70;5.82;;;5.40;99.90;;;;;;5077557;28;20389;-53
2022/01/15 03:01:44;;;;;;;21.05;5.45;;;5.40;99.90;;;;;;5078379;28;20400;-54
2022/01/15 03:04:09;;;;;;;16.45;4.70;;;5.40;99.90;;;;;;5095760;28;20389;-51
2022/01/15 03:06:35;;;;;;;18.05;4.97;;;5.40;99.90;;;;;;5079295;28;20477;-51
2022/01/15 03:09:00;;;;;;;22.10;5.32;;;5.40;99.90;;;;;;5078687;28;20475;-50
2022/01/15 03:11:28;;;;;;;20.93;4.93;;;5.40;99.90;;;;;;5078549;28;20447;-53
2022/01/15 03:13:53;;;;;;;15.40;4.18;;;5.40;99.90;;;;;;5078466;28;20774;-49
2022/01/15 03:16:20;;;;;;;16.42;4.18;;;5.40;99.90;;;;;;5077909;28;20458;-51
2022/01/15 03:18:47;;;;;;;24.63;5.70;;;5.40;99.90;;;;;;5095867;28;20485;-52
2022/01/15 03:21:13;;;;;;;22.42;5.65;;;5.40;99.90;;;;;;5078635;28;20389;-55
2022/01/15 03:23:39;;;;;;;19.20;4.80;;;5.40;99.90;;;;;;5076585;28;20386;-51
2022/01/15 03:26:07;;;;;;;25.95;5.22;;;5.40;99.90;;;;;;5077434;28;20386;-51
2022/01/15 03:28:34;;;;;;;19.08;4.35;;;5.40;99.90;;;;;;5077506;28;20401;-54
2022/01/15 03:30:59;;;;;;;16.65;4.28;;;5.40;99.90;;;;;;5095157;28;20400;-51
2022/01/15 03:33:25;;;;;;;26.10;6.53;;;5.40;99.90;;;;;;5077519;28;20477;-50
2022/01/15 03:35:50;;;;;;;16.58;4.63;;;5.40;99.90;;;;;;5078576;28;20384;-54
2022/01/15 03:38:16;;;;;;;20.83;5.07;;;5.40;99.90;;;;;;5077615;28;20455;-48
2022/01/15 03:40:41;;;;;;;21.50;5.93;;;5.40;99.90;;;;;;5076109;28;20413;-54
2022/01/15 03:43:07;;;;;;;18.13;4.63;;;5.30;99.90;;;;;;5074955;28;20663;-51
2022/01/15 03:45:33;;;;;;;25.02;5.78;;;5.30;99.90;;;;;;5074858;28;20417;-52
2022/01/15 03:47:59;;;;;;;21.00;5.22;;;5.30;99.90;;;;;;5075707;28;20505;-49
2022/01/15 03:50:26;;;;;;;22.95;6.28;;;5.30;99.90;;;;;;5074969;28;20386;-50
2022/01/15 03:52:52;;;;;;;20.88;5.38;;;5.30;99.90;;;;;;5092725;28;20452;-53
2022/01/15 03:55:19;;;;;;;24.35;6.00;;;5.40;99.90;;;;;;5074552;28;20427;-53
2022/01/15 03:57:44;;;;;;;16.95;4.47;;;5.40;99.90;;;;;;5073880;28;20690;-53
2022/01/15 04:00:14;;;;;;;16.10;4.32;;;5.40;99.90;;;;;;5089895;28;20845;-55
2022/01/15 04:02:41;;;;;;;18.85;5.45;;;5.40;99.90;;;;;;5071271;28;20444;-54
2022/01/15 04:05:08;;;;;;;17.73;4.55;;;5.40;99.90;;;;;;5073467;28;20978;-49
2022/01/15 04:07:33;;;;;;;14.40;4.35;;;5.40;99.90;;;;;;5075488;28;20405;-50
2022/01/15 04:09:59;;;;;;;20.63;4.60;;;5.40;99.90;;;;;;5072158;28;20434;-49
2022/01/15 04:12:24;;;;;;;17.67;5.20;;;5.50;99.90;;;;;;5073918;28;20821;-50
2022/01/15 04:14:50;;;;;;;21.90;5.17;;;5.40;99.90;;;;;;5073923;28;20425;-53
2022/01/15 04:17:15;;;;;;;22.65;5.22;;;5.40;99.90;;;;;;5076048;28;20450;-50
2022/01/15 04:19:41;;;;;;;20.27;5.60;;;5.40;99.90;;;;;;5093867;28;20386;-54
2022/01/15 04:22:07;;;;;;;22.60;5.47;;;5.40;99.90;;;;;;5075597;28;20669;-52
2022/01/15 04:24:32;;;;;;;23.63;5.50;;;5.40;99.90;;;;;;5075510;28;20682;-52
2022/01/15 04:26:58;;;;;;;13.50;4.00;;;5.30;99.90;;;;;;5075242;28;20447;-51
2022/01/15 04:29:23;;;;;;;18.17;4.73;;;5.30;99.90;;;;;;5075450;28;20386;-52
2022/01/15 04:31:51;;;;;;;23.20;5.53;;;5.30;99.90;;;;;;5075889;28;20459;-53
2022/01/15 04:34:19;;;;;;;17.02;4.43;;;5.30;99.90;;;;;;5075971;28;20386;-51
2022/01/15 04:36:46;;;;;;;22.30;5.35;;;5.30;99.90;;;;;;5076787;28;20387;-51
2022/01/15 04:39:12;;;;;;;19.05;5.07;;;5.30;99.90;;;;;;5074445;28;20378;-53
2022/01/15 04:41:38;;;;;;;18.92;4.57;;;5.30;99.90;;;;;;5074162;28;20385;-54
2022/01/15 04:44:06;;;;;;;16.52;4.43;;;5.30;99.90;;;;;;5075313;28;20682;-54
2022/01/15 04:46:35;;;;;;;17.05;4.40;;;5.30;99.90;;;;;;5091388;28;20401;-53
2022/01/15 04:49:01;;;;;;;21.80;5.13;;;5.30;99.90;;;;;;5074744;28;20766;-53
2022/01/15 04:51:27;;;;;;;12.87;3.87;;;5.30;99.90;;;;;;5094263;28;20415;-52
2022/01/15 04:53:53;;;;;;;22.10;5.37;;;5.30;99.90;;;;;;5093752;28;20467;-56
2022/01/15 04:56:18;;;;;;;20.07;5.00;;;5.30;99.90;;;;;;5075687;28;20659;-55
2022/01/15 04:58:44;;;;;;;15.10;4.57;;;5.30;99.90;;;;;;5074727;28;20386;-52
2022/01/15 05:01:10;;;;;;;11.57;3.80;;;5.30;99.90;;;;;;5072255;28;20501;-52
2022/01/15 05:03:35;;;;;;;16.37;4.73;;;5.30;99.90;;;;;;5071282;28;20414;-51
2022/01/15 05:06:01;;;;;;;19.13;5.72;;;5.30;99.90;;;;;;5076585;28;20394;-56
2022/01/15 05:08:26;;;;;;;16.30;4.60;;;5.30;99.90;;;;;;5077462;28;20977;-54
2022/01/15 05:10:54;;;;;;;20.30;5.13;;;5.30;99.90;;;;;;5076913;28;20495;-52
2022/01/15 05:13:26;;;;;;;16.92;4.72;;;5.30;99.90;;;;;;5078896;28;20640;-54
2022/01/15 05:15:52;;;;;;;17.40;4.70;;;5.30;99.90;;;;;;5078125;28;20398;-54
2022/01/15 05:18:18;;;;;;;18.77;4.95;;;5.20;99.90;;;;;;5077546;28;20715;-52
2022/01/15 05:20:45;;;;;;;21.20;5.63;;;5.20;99.90;;;;;;5078834;28;20394;-50
2022/01/15 05:23:10;;;;;;;24.80;6.50;;;5.20;99.90;;;;;;5096776;28;20413;-52
2022/01/15 05:25:36;;;;;;;21.83;5.37;;;5.10;99.90;;;;;;5078014;28;20420;-49
2022/01/15 05:28:02;;;;;;;24.47;6.73;;;5.10;99.90;;;;;;5078642;28;20474;-51
2022/01/15 05:30:30;;;;;;;22.88;5.72;;;5.10;99.90;;;;;;5094315;28;20742;-54
2022/01/15 05:32:56;;;;;;;16.53;4.83;;;5.10;99.90;;;;;;5077335;28;20455;-51
2022/01/15 05:35:26;;;;;;;16.75;5.05;;;5.10;99.90;;;;;;5078095;28;20643;-51
2022/01/15 05:37:52;;;;;;;16.58;4.70;;;5.20;99.90;;;;;;5077294;28;20447;-52
2022/01/15 05:40:18;;;;;;;22.15;5.78;;;5.10;99.90;;;;;;5077896;28;20392;-55
2022/01/15 05:42:43;;;;;;;19.45;5.22;;;5.10;99.90;;;;;;5077608;28;20390;-52
2022/01/15 05:45:09;;;;;;;12.73;4.47;;;5.10;99.90;;;;;;5077913;28;20393;-56
2022/01/15 05:47:35;;;;;;;21.58;5.32;;;5.20;99.90;;;;;;5076810;28;20406;-56
2022/01/15 05:50:00;;;;;;;15.80;4.78;;;5.20;99.90;;;;;;5094119;28;20468;-51
2022/01/15 05:52:26;;;;;;;14.32;4.63;;;5.20;99.90;;;;;;5094239;28;20430;-53
2022/01/15 05:54:52;;;;;;;20.87;5.63;;;5.20;99.90;;;;;;5076203;28;20374;-49
2022/01/15 05:57:18;;;;;;;15.30;4.80;;;5.20;99.90;;;;;;5092183;28;20715;-54
2022/01/15 05:59:44;;;;;;;13.70;4.60;;;5.10;99.90;;;;;;5091238;28;20629;-55
2022/01/15 06:02:10;;;;;;;18.70;5.25;;;5.20;99.90;;;;;;5074190;28;20574;-53
2022/01/15 06:04:36;;;;;;;15.90;4.50;;;5.20;99.90;;;;;;5077070;28;20469;-51
2022/01/15 06:07:02;;;;;;;20.75;5.50;;;5.20;99.90;;;;;;5077554;28;20386;-51
2022/01/15 06:09:27;;;;;;;17.40;5.22;;;5.10;99.90;;;;;;5076644;28;20391;-54
2022/01/15 06:11:56;;;;;;;24.00;5.65;;;5.10;99.90;;;;;;5077022;28;20382;-56
2022/01/15 06:14:22;;;;;;;17.17;5.25;;;5.00;99.90;;;;;;5094217;28;20378;-52
2022/01/15 06:16:47;;;;;;;12.87;4.50;;;4.90;99.90;;;;;;5093883;28;20719;-52
2022/01/15 06:19:13;;;;;;;11.60;4.60;;;5.00;99.90;;;;;;5076533;28;20749;-55
2022/01/15 06:21:38;;;;;;;24.30;5.95;;;5.00;99.90;;;;;;5076112;28;20462;-54
2022/01/15 06:24:04;;;;;;;16.70;5.23;;;5.10;99.90;;;;;;5075930;28;20472;-53
2022/01/15 06:26:30;;;;;;;21.92;5.45;;;5.10;99.90;;;;;;5074887;28;20382;-55
2022/01/15 06:28:55;;;;;;;18.15;4.95;;;5.00;99.90;;;;;;5074384;28;20659;-50
2022/01/15 06:31:21;;;;;;;15.63;5.20;;;5.00;99.90;;;;;;5074209;28;20725;-52
2022/01/15 06:33:47;;;;;;;16.83;5.03;;;4.90;99.90;;;;;;5073632;28;20408;-50
2022/01/15 06:36:12;;;;;;;15.65;4.70;;;4.90;99.90;;;;;;5092563;28;20377;-49
2022/01/15 06:38:40;;;;;;;13.43;4.78;;;5.00;99.90;;;;;;5074508;28;20400;-54
2022/01/15 06:41:06;;;;;;;16.95;5.55;;;5.00;99.90;;;;;;5074390;28;20471;-49
2022/01/15 06:43:31;;;;;;;19.38;5.88;;;5.00;99.90;;;;;;5073122;28;20469;-51
2022/01/15 06:45:57;;;;;;;16.33;5.03;;;5.00;99.90;;;;;;5076622;28;20852;-56
2022/01/15 06:48:23;;;;;;;15.27;5.50;;;4.90;99.90;;;;;;5094054;28;20867;-55
2022/01/15 06:50:48;;;;;;;14.88;4.75;;;4.90;99.90;;;;;;5093151;28;20386;-52
2022/01/15 06:53:14;;;;;;;12.07;5.13;;;4.90;99.90;;;;;;5074554;28;20407;-51
2022/01/15 06:55:40;;;;;;;17.35;6.40;;;4.90;99.90;;;;;;5073988;28;20384;-51
2022/01/15 06:58:05;;;;;;;12.10;4.72;;;4.90;99.90;;;;;;5091331;28;20386;-53
2022/01/15 07:00:32;;;;;;;15.33;6.40;;;5.00;99.90;;;;;;5091346;28;20932;-52
2022/01/15 07:03:02;;;;;;;14.93;5.55;;;4.80;99.90;;;;;;5073406;28;20798;-53
2022/01/15 07:05:28;;;;;;;15.00;5.70;;;4.80;99.90;;;;;;5073106;28;21061;-51
2022/01/15 07:07:54;;;;;;;12.57;5.30;;;4.80;99.90;;;;;;5075547;28;20505;-55
2022/01/15 07:10:19;;;;;;;12.15;5.78;;;4.90;99.90;;;;;;5092584;28;20464;-51
2022/01/15 07:12:45;;;;;;;13.63;5.97;;;4.90;99.90;;;;;;5091671;28;20382;-50
2022/01/15 07:15:11;;;;;;;18.67;6.43;;;4.90;99.90;;;;;;5075113;28;20433;-49
2022/01/15 07:17:44;;;;;;;16.90;6.07;;;4.90;99.90;;;;;;5075587;28;20390;-50
2022/01/15 07:20:11;;;;;;;16.52;6.22;;;5.00;99.90;;;;;;5093710;28;20401;-56
2022/01/15 07:22:39;;;;;;;15.00;5.90;;;4.90;99.90;;;;;;5092602;28;20456;-56
2022/01/15 07:25:08;;;;;;;10.53;5.83;;;5.00;99.90;;;;;;5076345;28;20390;-55
2022/01/15 07:27:33;;;;;;;15.25;6.63;;;4.90;99.90;;;;;;5076515;28;20467;-54
2022/01/15 07:30:02;;;;;;;17.33;6.40;;;4.90;99.90;;;;;;5077173;28;20453;-50
2022/01/15 07:32:28;;;;;;;15.35;5.97;;;4.90;99.90;;;;;;5095551;28;20378;-50
2022/01/15 07:34:54;;;;;;;14.30;5.77;;;4.90;99.90;;;;;;5076894;28;20679;-51
2022/01/15 07:37:22;;;;;;;18.50;6.33;;;4.90;99.90;;;;;;5075748;28;20440;-49
2022/01/15 07:39:49;;;;;;;15.03;6.37;;;5.00;99.90;;;;;;5076495;28;20488;-52
2022/01/15 07:42:14;;;;;;;21.50;7.53;;;5.00;99.90;;;;;;5077155;28;20396;-53
2022/01/15 07:44:40;;;;;;;18.40;7.13;;;5.00;99.90;;;;;;5074609;28;20489;-54
2022/01/15 07:47:06;;;;;;;19.00;7.10;;;4.90;99.90;;;;;;5073025;28;20386;-53
2022/01/15 07:49:32;;;;;;;16.92;7.72;;;4.80;99.90;;;;;;5074036;28;20481;-52
2022/01/15 07:51:59;;;;;;;10.63;6.32;;;4.80;99.90;;;;;;5075020;28;20469;-51
2022/01/15 07:54:24;;;;;;;15.43;7.60;;;4.70;99.90;;;;;;5073850;28;20471;-54
2022/01/15 07:56:54;;;;;;;12.07;7.77;;;4.80;99.90;;;;;;5091627;28;20417;-50
2022/01/15 07:59:23;;;;;;;8.73;6.53;;;4.80;99.90;;;;;;5074551;28;20455;-52
2022/01/15 08:01:48;;;;;;;15.52;7.75;;;4.80;99.90;;;;;;5073493;28;20865;-55
2022/01/15 08:04:14;;;;;;;9.05;6.40;;;4.90;99.90;;;;;;5072868;28;20389;-54
2022/01/15 08:06:41;;;;;;;10.43;6.27;;;4.90;99.90;;;;;;5073328;28;20394;-54
2022/01/15 08:09:06;;;;;;;14.60;7.03;;;5.00;99.90;;;;;;5072268;28;20462;-51
2022/01/15 08:11:32;;;;;;;19.90;8.67;;;5.00;99.90;;;;;;5091010;28;20390;-52
2022/01/15 08:13:57;;;;;;;12.98;7.40;;;4.90;99.90;;;;;;5072851;28;20389;-54
2022/01/15 08:16:23;;;;;;;15.20;7.57;;;4.90;99.90;;;;;;5072464;28;20432;-52
2022/01/15 08:18:49;;;;;;;11.37;6.93;;;4.90;99.90;;;;;;5072200;28;20393;-51
2022/01/15 08:21:14;;;;;;;10.00;6.80;;;5.00;99.90;;;;;;5069881;28;20405;-53
2022/01/15 08:23:40;;;;;;;11.10;6.63;;;5.00;99.90;;;;;;5071348;28;20461;-54
2022/01/15 08:26:06;;;;;;;16.70;7.60;;;5.10;99.90;;;;;;5087682;28;20389;-51
2022/01/15 08:28:31;;;;;;;18.13;8.07;;;5.20;99.90;;;;;;5070126;28;20412;-51
2022/01/15 08:30:57;;;;;;;18.90;7.93;;;5.10;99.90;;;;;;5087984;28;20398;-52
2022/01/15 08:33:22;;;;;;;14.88;8.02;;;5.00;99.90;;;;;;5088187;28;20393;-53
2022/01/15 08:35:48;;;;;;;13.97;7.97;;;5.10;99.90;;;;;;5069868;28;20573;-53
2022/01/15 08:38:13;;;;;;;10.00;6.40;;;5.10;99.90;;;;;;5087435;28;20776;-53
2022/01/15 08:40:39;;;;;;;13.73;7.13;;;5.10;99.90;;;;;;5069565;28;20494;-53
2022/01/15 08:43:05;;;;;;;12.82;7.38;;;5.10;99.90;;;;;;5070811;28;20425;-52
2022/01/15 08:45:32;;;;;;;12.40;7.03;;;5.10;99.90;;;;;;5070700;28;20393;-55
2022/01/15 08:47:57;;;;;;;11.70;7.05;;;5.20;99.90;;;;;;5090274;28;20648;-54
2022/01/15 08:50:23;;;;;;;14.52;6.70;;;5.20;99.90;;;;;;5089052;28;21010;-51
2022/01/15 08:52:49;;;;;;;15.55;6.13;;;5.10;99.90;;;;;;5073222;28;20382;-55
2022/01/15 08:55:16;;;;;;;12.98;6.20;;;5.10;99.90;;;;;;5072318;28;20423;-51
2022/01/15 08:57:42;;;;;;;11.43;6.20;;;5.00;99.90;;;;;;5072579;28;20455;-55
2022/01/15 09:00:12;;;;;;;17.33;5.80;;;5.00;99.90;;;;;;5071803;28;20406;-55
2022/01/15 09:02:38;;;;;;;9.82;5.25;;;5.00;99.90;;;;;;5062952;28;20506;-49
2022/01/15 09:05:04;;;;;;;9.45;5.43;;;5.10;99.90;;;;;;5067381;28;20474;-56
2022/01/15 09:07:30;;;;;;;10.60;5.75;;;5.20;99.90;;;;;;5049901;28;20412;-55
2022/01/15 09:09:56;;;;;;;18.50;6.43;;;5.30;99.90;;;;;;5048965;28;20452;-52
2022/01/15 09:12:22;;;;;;;10.73;5.40;;;5.30;99.90;;;;;;5065630;28;20636;-51
2022/01/15 09:14:49;;;;;;;11.40;6.40;;;5.40;99.90;;;;;;5045857;28;20384;-52
2022/01/15 09:17:15;;;;;;;12.55;6.22;;;5.40;99.90;;;;;;5047251;28;20561;-48
2022/01/15 09:19:40;;;;;;;9.53;5.63;;;5.50;99.90;;;;;;5047704;28;20463;-52
2022/01/15 09:22:10;;;;;;;14.03;6.63;;;5.60;99.90;;;;;;5049048;28;20629;-53
2022/01/15 09:24:35;;;;;;;15.10;6.07;;;5.50;99.90;;;;;;5066100;28;20467;-51
2022/01/15 09:30:11;;;;;;;13.90;5.82;;;5.60;99.90;;;;;;5058803;28;20492;-51
2022/01/15 09:32:31;;;;;;;12.15;5.47;;;5.80;99.90;;;;;;5047045;28;20412;-52
2022/01/15 09:34:56;;;;;;;11.13;4.90;;;6.00;99.90;;;;;;5029299;28;20746;-53
2022/01/15 09:37:22;;;;;;;11.97;4.70;;;6.40;99.90;;;;;;5029144;28;20904;-55
2022/01/15 09:39:47;;;;;;;13.40;5.28;;;6.70;99.90;;;;;;5029451;28;20397;-52
2022/01/15 09:42:13;;;;;;;13.03;5.13;;;6.70;99.90;;;;;;5029575;28;20526;-55
2022/01/15 09:44:40;;;;;;;15.30;5.47;;;6.60;99.90;;;;;;5030292;28;20447;-52
2022/01/15 09:47:09;;;;;;;11.97;4.87;;;6.40;99.90;;;;;;5030852;28;20393;-51
2022/01/15 09:49:35;;;;;;;12.15;5.30;;;6.30;99.90;;;;;;5030391;28;20849;-54
2022/01/15 09:52:03;;;;;;;14.95;5.07;;;6.30;99.90;;;;;;5031028;28;20400;-51
2022/01/15 09:54:29;;;;;;;12.13;4.72;;;6.30;99.90;;;;;;5032098;28;20385;-50
2022/01/15 09:56:55;;;;;;;11.27;5.10;;;6.20;99.90;;;;;;5066105;28;20436;-51
2022/01/15 09:59:21;;;;;;;11.27;4.60;;;6.20;99.90;;;;;;5050178;28;20554;-54
2022/01/15 10:01:47;;;;;;;9.67;4.40;;;6.20;99.90;;;;;;5032763;28;20455;-51
2022/01/15 10:04:13;;;;;;;11.97;5.40;;;6.20;99.90;;;;;;5052830;28;20453;-53
2022/01/15 10:07:04;;;;;;;11.88;4.82;;;6.20;99.90;;;;;;5052156;28;20391;-54
2022/01/15 10:09:30;;;;;;;9.35;4.22;;;6.20;99.90;;;;;;5049884;28;20404;-53
2022/01/15 10:11:55;;;;;;;9.87;4.13;;;6.10;99.90;;;;;;5067173;28;20456;-54
2022/01/15 10:14:36;;;;;;;16.43;5.43;;;6.10;99.90;;;;;;5083729;28;20398;-50
2022/01/15 10:17:19;;;;;;;9.63;4.07;;;6.00;99.90;;;;;;5046894;28;20796;-51
2022/01/15 10:19:45;;;;;;;16.17;5.38;;;5.90;99.90;;;;;;5048462;28;20686;-49
2022/01/15 10:22:16;;;;;;;12.15;4.63;;;5.90;99.90;;;;;;5050888;28;20815;-52
2022/01/15 10:24:50;;;;;;;10.97;4.60;;;5.90;99.90;;;;;;5049856;28;20663;-53
2022/01/15 10:27:26;;;;;;;14.43;4.80;;;6.00;99.90;;;;;;5049034;28;20756;-51
2022/01/15 10:29:58;;;;;;;15.32;5.40;;;6.00;99.90;;;;;;5065795;28;20379;-55
2022/01/15 10:32:25;;;;;;;9.02;4.30;;;6.00;99.90;;;;;;5049470;28;20680;-54
2022/01/15 10:34:52;;;;;;;14.43;5.38;;;6.10;99.90;;;;;;5050629;28;20376;-55
2022/01/15 10:37:22;;;;;;;15.57;5.60;;;6.10;99.90;;;;;;5049894;28;21046;-56
2022/01/15 10:40:10;;;;;;;16.48;6.00;;;6.00;99.90;;;;;;5072460;28;20407;-49
2022/01/15 10:42:38;;;;;;;12.13;5.15;;;5.70;99.90;;;;;;5056107;28;20784;-53
2022/01/15 10:45:13;;;;;;;18.90;5.63;;;5.80;99.90;;;;;;5073473;28;20686;-57
2022/01/15 10:47:43;;;;;;;17.38;5.97;;;5.90;99.90;;;;;;5056235;28;20403;-57
2022/01/15 10:50:22;;;;;;;18.52;5.80;;;5.80;99.90;;;;;;5055340;28;21135;-53
2022/01/15 10:52:48;;;;;;;15.85;6.53;;;5.80;99.90;;;;;;5088293;28;20403;-53
2022/01/15 10:55:17;;;;;;;18.67;6.65;;;5.90;99.90;;;;;;5072317;28;20557;-49
2022/01/15 10:57:53;;;;;;;22.67;7.53;;;6.00;99.90;;;;;;5055100;28;20399;-54
2022/01/15 11:00:30;;;;;;;15.48;6.93;;;5.80;99.90;;;;;;5070976;28;20713;-50
2022/01/15 11:03:01;;;;;;;19.85;7.40;;;5.70;99.90;;;;;;5056502;28;20685;-54
2022/01/15 11:05:41;;;;;;;18.38;7.53;;;5.60;99.90;;;;;;5037806;28;20478;-54
2022/01/15 11:08:16;;;;;;;12.27;6.10;;;5.70;99.90;;;;;;5054077;28;20399;-56
2022/01/15 11:10:43;;;;;;;12.30;6.25;;;5.80;99.90;;;;;;5054333;28;20461;-49
2022/01/15 11:13:14;;;;;;;16.40;6.75;;;5.90;99.90;;;;;;5054523;28;20776;-54
2022/01/15 11:15:43;;;;;;;17.13;6.80;;;6.10;99.90;;;;;;5055520;28;21028;-50
2022/01/15 11:18:34;;;;;;;18.75;7.18;;;6.20;99.90;;;;;;5054874;28;20442;-53
2022/01/15 11:21:04;;;;;;;17.02;6.40;;;6.20;99.90;;;;;;5041003;28;20480;-54
2022/01/15 11:23:33;;;;;;;11.35;5.80;;;6.40;99.90;;;;;;5056324;28;20407;-55
2022/01/15 11:26:04;;;;;;;11.95;5.53;;;6.50;99.90;;;;;;5054335;28;20505;-54
2022/01/15 11:28:33;;;;;;;16.60;7.50;;;6.60;99.90;;;;;;5072068;28;20469;-51
2022/01/15 11:31:12;;;;;;;20.67;7.15;;;6.50;99.90;;;;;;5054082;28;20394;-54
2022/01/15 11:33:46;;;;;;;15.25;6.32;;;6.50;99.90;;;;;;5053250;28;20399;-55
2022/01/15 11:36:43;;;;;;;19.33;7.18;;;6.70;99.90;;;;;;5036211;28;20387;-50
2022/01/15 11:39:20;;;;;;;19.33;8.23;;;6.90;99.90;;;;;;5054415;28;20498;-52
2022/01/15 11:41:51;;;;;;;19.42;7.38;;;6.60;99.90;;;;;;5071870;28;20395;-56
2022/01/15 11:44:38;;;;;;;16.65;6.13;;;6.60;99.90;;;;;;5072059;28;20384;-53
2022/01/15 11:47:18;;;;;;;20.52;7.95;;;6.80;99.90;;;;;;5054673;28;20438;-51
2022/01/15 11:49:47;;;;;;;22.35;8.23;;;6.70;99.90;;;;;;5053023;28;20812;-56
2022/01/15 11:52:14;;;;;;;13.68;6.25;;;6.50;99.90;;;;;;5069575;28;20392;-56
2022/01/15 11:55:04;;;;;;;19.42;7.10;;;6.60;99.90;;;;;;5051765;28;20417;-56
2022/01/15 11:57:48;;;;;;;14.20;6.10;;;6.80;99.90;;;;;;5052033;28;20474;-54
2022/01/15 12:00:26;;;;;;;11.07;5.45;;;7.10;99.90;;;;;;5052916;28;20810;-55
2022/01/15 12:03:00;;;;;;;18.00;7.78;;;7.40;99.90;;;;;;5054382;28;20416;-52
2022/01/15 12:05:28;;;;;;;12.00;6.13;;;7.70;99.90;;;;;;5070964;28;20402;-49
2022/01/15 12:08:02;;;;;;;14.27;6.35;;;7.80;99.90;;;;;;5079036;28;20857;-53
2022/01/15 12:10:49;;;;;;;12.20;5.90;;;7.90;99.90;;;;;;5074338;28;20390;-54
2022/01/15 12:13:27;;;;;;;10.88;5.30;;;8.00;99.90;;;;;;5074668;28;20392;-51
2022/01/15 12:16:21;;;;;;;18.08;6.80;;;8.10;99.90;;;;;;5074117;28;20378;-53
2022/01/15 12:18:49;;;;;;;23.25;7.38;;;8.10;99.90;;;;;;5073623;28;20449;-54
2022/01/15 12:21:42;;;;;;;15.13;5.93;;;8.10;99.90;;;;;;5075199;28;20805;-53
2022/01/15 12:24:39;;;;;;;19.03;6.90;;;8.20;99.90;;;;;;5066049;28;20417;-52
2022/01/15 12:27:10;;;;;;;15.70;6.03;;;8.50;99.90;;;;;;5074295;28;20378;-54
2022/01/15 12:29:37;;;;;;;16.92;6.25;;;8.80;99.90;;;;;;5074059;28;20402;-50
2022/01/15 12:32:03;;;;;;;12.00;4.78;;;8.60;99.90;;;;;;5075006;28;20366;-49
2022/01/15 12:34:29;;;;;;;19.08;6.05;;;8.50;99.90;;;;;;5075242;28;20452;-51
2022/01/15 12:36:56;;;;;;;16.80;5.13;;;8.30;99.90;;;;;;5092132;28;20413;-51
2022/01/15 12:39:37;;;;;;;17.65;5.57;;;7.60;99.90;;;;;;5073600;28;21122;-52
2022/01/15 12:42:06;;;;;;;13.80;4.82;;;7.40;99.90;;;;;;5091592;28;20377;-51
2022/01/15 12:44:53;;;;;;;11.55;4.50;;;7.40;99.90;;;;;;5074007;28;20654;-52
2022/01/15 12:47:21;;;;;;;12.32;4.28;;;7.50;99.90;;;;;;5074233;28;20405;-52
2022/01/15 12:49:51;;;;;;;16.98;5.90;;;7.60;99.90;;;;;;5072868;28;20366;-54
2022/01/15 12:52:24;;;;;;;20.55;6.35;;;7.50;99.90;;;;;;5072423;28;20397;-55
2022/01/15 12:54:54;;;;;;;17.10;5.30;;;7.30;99.90;;;;;;5055875;28;20409;-51
2022/01/15 12:57:40;;;;;;;16.33;5.43;;;7.20;99.90;;;;;;5071776;28;20382;-51
2022/01/15 13:00:13;;;;;;;12.45;4.05;;;7.40;99.90;;;;;;5071080;28;20382;-52
2022/01/15 13:02:38;;;;;;;16.77;5.38;;;7.50;99.90;;;;;;5087827;28;20393;-55
2022/01/15 13:05:04;;;;;;;10.60;4.30;;;7.60;99.90;;;;;;5071369;28;20405;-55
2022/01/15 13:07:48;;;;;;;20.40;5.95;;;7.80;99.90;;;;;;5071778;28;20414;-54
2022/01/15 13:10:46;;;;;;;17.10;5.28;;;7.90;99.90;;;;;;5090914;28;20765;-52
2022/01/15 13:13:33;;;;;;;15.48;4.70;;;7.70;99.90;;;;;;5071006;28;20381;-53
2022/01/15 13:16:30;;;;;;;23.98;5.78;;;7.60;99.90;;;;;;5087788;28;20369;-54
2022/01/15 13:19:02;;;;;;;22.90;5.53;;;7.50;99.90;;;;;;5088620;28;20436;-53